createdAt,value
2016-11-17T00:00:44.742Z,23.84
2016-11-17T00:01:44.997Z,23.84
2016-11-17T00:02:44.619Z,23.8
2016-11-17T00:03:44.560Z,23.77
2016-11-17T00:04:44.499Z,23.83
2016-11-17T00:05:44.441Z,23.81
2016-11-17T00:06:44.379Z,23.81
2016-11-17T00:07:44.314Z,23.81
2016-11-17T00:08:44.297Z,23.84
2016-11-17T00:09:44.192Z,23.81
2016-11-17T00:10:44.139Z,23.81
2016-11-17T00:11:44.072Z,23.8
2016-11-17T00:12:44.011Z,23.8
2016-11-17T00:13:43.949Z,23.78
2016-11-17T00:14:43.891Z,23.87
2016-11-17T00:15:43.829Z,23.78
2016-11-17T00:16:43.770Z,23.83
2016-11-17T00:17:43.707Z,23.8
2016-11-17T00:18:43.649Z,23.8
2016-11-17T00:19:43.588Z,23.81
2016-11-17T00:20:43.529Z,23.83
2016-11-17T00:21:43.467Z,23.77
2016-11-17T00:22:43.405Z,23.8
2016-11-17T00:23:43.384Z,23.74
2016-11-17T00:24:43.282Z,23.77
2016-11-17T00:25:43.221Z,23.8
2016-11-17T00:26:43.164Z,23.77
2016-11-17T00:27:43.098Z,23.78
2016-11-17T00:28:43.039Z,23.8
2016-11-17T00:29:42.977Z,23.8
2016-11-17T00:30:42.924Z,23.8
2016-11-17T00:31:42.889Z,23.76
2016-11-17T00:32:42.798Z,23.77
2016-11-17T00:33:42.744Z,23.76
2016-11-17T00:34:42.679Z,23.74
2016-11-17T00:35:42.619Z,23.8
2016-11-17T00:36:42.552Z,23.8
2016-11-17T00:37:42.495Z,23.76
2016-11-17T00:38:42.433Z,23.76
2016-11-17T00:39:42.374Z,23.77
2016-11-17T00:40:42.308Z,23.76
2016-11-17T00:41:42.255Z,23.73
2016-11-17T00:42:42.190Z,23.78
2016-11-17T00:43:42.130Z,23.76
2016-11-17T00:44:42.071Z,23.74
2016-11-17T00:45:42.009Z,23.76
2016-11-17T00:46:41.946Z,23.73
2016-11-17T00:47:41.890Z,23.74
2016-11-17T00:48:41.825Z,23.74
2016-11-17T00:49:41.767Z,23.69
2016-11-17T00:50:41.704Z,23.71
2016-11-17T00:51:41.647Z,23.71
2016-11-17T00:52:41.770Z,23.76
2016-11-17T00:53:41.525Z,23.69
2016-11-17T00:54:41.459Z,23.69
2016-11-17T00:55:41.400Z,23.74
2016-11-17T00:56:41.349Z,23.68
2016-11-17T00:57:41.281Z,23.74
2016-11-17T00:58:41.219Z,23.76
2016-11-17T00:59:41.163Z,23.74
2016-11-17T01:00:41.102Z,23.74
2016-11-17T01:01:41.042Z,23.71
2016-11-17T01:02:40.975Z,23.63
2016-11-17T01:03:40.913Z,23.74
2016-11-17T01:04:40.852Z,23.68
2016-11-17T01:05:40.798Z,23.68
2016-11-17T01:06:40.730Z,23.69
2016-11-17T01:07:40.672Z,23.71
2016-11-17T01:08:40.618Z,23.71
2016-11-17T01:09:40.557Z,23.69
2016-11-17T01:10:40.490Z,23.69
2016-11-17T01:11:40.432Z,23.68
2016-11-17T01:12:40.371Z,23.73
2016-11-17T01:13:40.307Z,23.74
2016-11-17T01:14:40.258Z,23.68
2016-11-17T01:15:40.192Z,23.74
2016-11-17T01:16:40.128Z,23.73
2016-11-17T01:17:40.065Z,23.69
2016-11-17T01:18:40.007Z,23.77
2016-11-17T01:19:39.970Z,23.74
2016-11-17T01:20:39.886Z,23.69
2016-11-17T01:21:39.856Z,23.74
2016-11-17T01:22:39.791Z,23.76
2016-11-17T01:23:39.703Z,23.74
2016-11-17T01:24:39.644Z,23.78
2016-11-17T01:25:39.578Z,23.76
2016-11-17T01:26:39.519Z,23.77
2016-11-17T01:27:39.662Z,23.83
2016-11-17T01:28:39.399Z,23.86
2016-11-17T01:29:39.340Z,23.88
2016-11-17T01:30:39.276Z,23.87
2016-11-17T01:31:39.213Z,23.81
2016-11-17T01:32:39.156Z,23.83
2016-11-17T01:33:39.094Z,23.86
2016-11-17T01:34:39.033Z,23.8
2016-11-17T01:35:38.972Z,23.93
2016-11-17T01:36:38.911Z,23.88
2016-11-17T01:37:38.848Z,23.83
2016-11-17T01:38:38.798Z,23.88
2016-11-17T01:39:38.732Z,23.91
2016-11-17T01:40:38.674Z,24.03
2016-11-17T01:41:38.608Z,23.96
2016-11-17T01:42:38.557Z,24.06
2016-11-17T01:43:38.803Z,23.98
2016-11-17T01:44:38.426Z,24.03
2016-11-17T01:45:38.366Z,24.03
2016-11-17T01:46:38.310Z,24.02
2016-11-17T01:47:38.248Z,23.95
2016-11-17T01:48:38.187Z,24.01
2016-11-17T01:49:38.131Z,24.05
2016-11-17T01:50:38.067Z,24.11
2016-11-17T01:51:38.011Z,24.08
2016-11-17T01:52:37.943Z,24.02
2016-11-17T01:53:37.887Z,24.11
2016-11-17T01:54:37.826Z,24.11
2016-11-17T01:55:37.763Z,24.08
2016-11-17T01:56:37.707Z,24.17
2016-11-17T01:57:37.652Z,24.14
2016-11-17T01:58:37.586Z,24.14
2016-11-17T01:59:37.528Z,24.13
2016-11-17T02:00:37.462Z,24.17
2016-11-17T02:01:37.402Z,24.11
2016-11-17T02:02:37.347Z,24.14
2016-11-17T02:03:37.293Z,24.02
2016-11-17T02:04:37.222Z,24.03
2016-11-17T02:05:37.164Z,23.99
2016-11-17T02:06:37.108Z,24.05
2016-11-17T02:07:37.047Z,24.02
2016-11-17T02:08:36.990Z,24.05
2016-11-17T02:09:36.920Z,24.08
2016-11-17T02:10:36.858Z,24.06
2016-11-17T02:11:36.799Z,23.99
2016-11-17T02:12:36.739Z,24.1
2016-11-17T02:13:36.678Z,24.1
2016-11-17T02:14:36.616Z,24.1
2016-11-17T02:15:36.563Z,24.02
2016-11-17T02:16:36.495Z,24.05
2016-11-17T02:17:36.433Z,24.03
2016-11-17T02:18:36.380Z,24.05
2016-11-17T02:19:36.314Z,24.02
2016-11-17T02:20:36.253Z,24.01
2016-11-17T02:21:36.195Z,24.03
2016-11-17T02:22:36.132Z,24.01
2016-11-17T02:23:36.076Z,24.05
2016-11-17T02:24:36.013Z,24.06
2016-11-17T02:25:35.949Z,24.06
2016-11-17T02:26:35.894Z,23.91
2016-11-17T02:27:35.832Z,23.93
2016-11-17T02:28:35.765Z,23.92
2016-11-17T02:29:35.709Z,23.86
2016-11-17T02:30:35.642Z,23.91
2016-11-17T02:31:35.581Z,23.88
2016-11-17T02:32:35.524Z,23.87
2016-11-17T02:33:35.461Z,23.81
2016-11-17T02:34:35.405Z,23.88
2016-11-17T02:35:35.342Z,23.99
2016-11-17T02:36:35.283Z,23.87
2016-11-17T02:37:35.229Z,23.84
2016-11-17T02:38:35.166Z,23.92
2016-11-17T02:39:35.106Z,23.88
2016-11-17T02:40:35.042Z,23.92
2016-11-17T02:41:34.978Z,23.93
2016-11-17T02:42:34.916Z,23.84
2016-11-17T02:43:34.855Z,23.83
2016-11-17T02:44:34.801Z,23.95
2016-11-17T02:45:34.735Z,23.93
2016-11-17T02:46:34.679Z,23.81
2016-11-17T02:47:34.610Z,23.93
2016-11-17T02:48:34.555Z,23.86
2016-11-17T02:49:34.493Z,23.92
2016-11-17T02:50:34.429Z,23.92
2016-11-17T02:51:34.378Z,23.83
2016-11-17T02:52:34.313Z,23.88
2016-11-17T02:53:34.282Z,23.92
2016-11-17T02:54:34.187Z,23.88
2016-11-17T02:55:34.130Z,23.88
2016-11-17T02:56:34.071Z,23.88
2016-11-17T02:57:34.010Z,23.86
2016-11-17T02:58:33.975Z,23.8
2016-11-17T02:59:33.889Z,23.83
2016-11-17T03:00:33.829Z,23.83
2016-11-17T03:01:33.767Z,23.83
2016-11-17T03:02:33.703Z,23.8
2016-11-17T03:03:33.644Z,23.81
2016-11-17T03:04:33.587Z,23.83
2016-11-17T03:05:33.525Z,23.8
2016-11-17T03:06:33.460Z,23.84
2016-11-17T03:07:33.401Z,23.83
2016-11-17T03:08:33.343Z,23.76
2016-11-17T03:09:33.280Z,23.77
2016-11-17T03:10:33.220Z,23.8
2016-11-17T03:11:33.161Z,23.76
2016-11-17T03:12:33.098Z,23.78
2016-11-17T03:13:33.040Z,23.77
2016-11-17T03:14:32.976Z,23.71
2016-11-17T03:15:32.921Z,23.76
2016-11-17T03:16:32.863Z,23.73
2016-11-17T03:17:32.796Z,23.73
2016-11-17T03:18:32.736Z,23.73
2016-11-17T03:19:32.675Z,23.73
2016-11-17T03:20:32.610Z,23.76
2016-11-17T03:21:32.595Z,23.69
2016-11-17T03:22:32.493Z,23.73
2016-11-17T03:23:32.429Z,23.69
2016-11-17T03:24:32.374Z,23.66
2016-11-17T03:25:32.311Z,23.76
2016-11-17T03:26:32.253Z,23.71
2016-11-17T03:27:32.188Z,23.68
2016-11-17T03:28:32.132Z,23.71
2016-11-17T03:29:32.071Z,23.76
2016-11-17T03:30:32.009Z,23.73
2016-11-17T03:31:31.949Z,23.76
2016-11-17T03:32:31.890Z,23.77
2016-11-17T03:33:31.830Z,23.77
2016-11-17T03:34:31.766Z,23.83
2016-11-17T03:35:31.708Z,23.81
2016-11-17T03:36:31.645Z,23.78
2016-11-17T03:37:31.585Z,23.83
2016-11-17T03:38:31.524Z,23.8
2016-11-17T03:39:31.464Z,23.81
2016-11-17T03:40:31.402Z,23.81
2016-11-17T03:41:31.344Z,23.86
2016-11-17T03:42:31.285Z,23.91
2016-11-17T03:43:31.260Z,23.88
2016-11-17T03:44:31.163Z,23.87
2016-11-17T03:45:31.137Z,23.84
2016-11-17T03:46:31.048Z,23.91
2016-11-17T03:47:30.980Z,23.96
2016-11-17T03:48:30.917Z,23.96
2016-11-17T03:49:30.862Z,23.92
2016-11-17T03:50:30.802Z,23.88
2016-11-17T03:51:30.740Z,23.86
2016-11-17T03:52:30.676Z,23.84
2016-11-17T03:53:30.619Z,23.91
2016-11-17T03:54:30.559Z,23.92
2016-11-17T03:55:30.499Z,23.96
2016-11-17T03:56:30.434Z,23.99
2016-11-17T03:57:30.372Z,23.95
2016-11-17T03:58:30.320Z,23.98
2016-11-17T03:59:30.257Z,23.99
2016-11-17T04:00:30.201Z,24.08
2016-11-17T04:01:30.129Z,24.05
2016-11-17T04:02:30.078Z,24.03
2016-11-17T04:03:30.014Z,24.05
2016-11-17T04:04:29.953Z,24.02
2016-11-17T04:05:29.893Z,24.01
2016-11-17T04:06:29.837Z,24.14
2016-11-17T04:07:29.778Z,24.03
2016-11-17T04:08:29.715Z,24.11
2016-11-17T04:09:29.655Z,24.03
2016-11-17T04:10:29.592Z,24.03
2016-11-17T04:11:29.535Z,24.1
2016-11-17T04:12:29.509Z,24.08
2016-11-17T04:13:29.410Z,24.08
2016-11-17T04:14:29.349Z,24.01
2016-11-17T04:15:29.302Z,24.17
2016-11-17T04:16:29.235Z,24.13
2016-11-17T04:17:29.173Z,24.13
2016-11-17T04:18:29.109Z,24.1
2016-11-17T04:19:29.051Z,24.1
2016-11-17T04:20:28.991Z,24.14
2016-11-17T04:21:28.933Z,24.16
2016-11-17T04:22:28.871Z,24.1
2016-11-17T04:23:28.811Z,24.11
2016-11-17T04:24:28.744Z,24.08
2016-11-17T04:25:28.690Z,24.16
2016-11-17T04:26:28.627Z,24.1
2016-11-17T04:27:28.566Z,24.13
2016-11-17T04:28:28.508Z,24.08
2016-11-17T04:29:28.444Z,24.14
2016-11-17T04:30:28.395Z,24.08
2016-11-17T04:31:28.328Z,24.14
2016-11-17T04:32:28.264Z,24.1
2016-11-17T04:33:28.210Z,24.05
2016-11-17T04:34:28.464Z,24.11
2016-11-17T04:35:28.086Z,24.1
2016-11-17T04:36:28.025Z,24.03
2016-11-17T04:37:27.961Z,24.14
2016-11-17T04:38:27.905Z,24.11
2016-11-17T04:39:27.847Z,24.13
2016-11-17T04:40:27.780Z,24.08
2016-11-17T04:41:27.725Z,24.13
2016-11-17T04:42:27.664Z,24.02
2016-11-17T04:43:27.639Z,24.01
2016-11-17T04:44:27.545Z,24.08
2016-11-17T04:45:27.492Z,23.99
2016-11-17T04:46:27.428Z,24.06
2016-11-17T04:47:27.361Z,24.11
2016-11-17T04:48:27.306Z,23.99
2016-11-17T04:49:27.240Z,24.05
2016-11-17T04:50:27.179Z,24.06
2016-11-17T04:51:27.118Z,23.99
2016-11-17T04:52:27.076Z,24.05
2016-11-17T04:53:27.002Z,24.06
2016-11-17T04:54:26.941Z,24.05
2016-11-17T04:55:26.879Z,24.03
2016-11-17T04:56:26.821Z,23.95
2016-11-17T04:57:26.758Z,23.98
2016-11-17T04:58:26.699Z,23.95
2016-11-17T04:59:26.673Z,23.93
2016-11-17T05:00:26.577Z,23.95
2016-11-17T05:01:26.519Z,23.88
2016-11-17T05:02:26.467Z,23.88
2016-11-17T05:03:26.435Z,23.96
2016-11-17T05:04:26.340Z,23.91
2016-11-17T05:05:26.278Z,23.86
2016-11-17T05:06:26.217Z,23.91
2016-11-17T05:07:26.159Z,23.88
2016-11-17T05:08:26.153Z,23.86
2016-11-17T05:09:26.038Z,23.8
2016-11-17T05:10:25.975Z,23.87
2016-11-17T05:11:25.924Z,23.96
2016-11-17T05:12:25.862Z,23.8
2016-11-17T05:13:25.808Z,23.92
2016-11-17T05:14:25.741Z,23.93
2016-11-17T05:15:25.682Z,23.95
2016-11-17T05:16:25.623Z,23.95
2016-11-17T05:17:26.766Z,23.99
2016-11-17T05:18:25.499Z,23.95
2016-11-17T05:19:25.440Z,23.88
2016-11-17T05:20:25.380Z,23.93
2016-11-17T05:21:25.320Z,23.81
2016-11-17T05:22:25.259Z,23.92
2016-11-17T05:23:25.201Z,23.83
2016-11-17T05:24:25.136Z,23.88
2016-11-17T05:25:25.082Z,23.86
2016-11-17T05:26:25.016Z,23.92
2016-11-17T05:27:24.958Z,23.92
2016-11-17T05:28:24.896Z,23.87
2016-11-17T05:29:24.835Z,23.91
2016-11-17T05:30:24.775Z,23.8
2016-11-17T05:31:24.714Z,23.83
2016-11-17T05:32:24.654Z,23.86
2016-11-17T05:33:24.594Z,23.87
2016-11-17T05:34:24.532Z,23.87
2016-11-17T05:35:24.474Z,23.76
2016-11-17T05:36:24.413Z,23.87
2016-11-17T05:37:24.353Z,23.8
2016-11-17T05:38:24.327Z,23.73
2016-11-17T05:39:24.232Z,23.86
2016-11-17T05:40:24.210Z,23.78
2016-11-17T05:41:24.112Z,23.81
2016-11-17T05:42:24.050Z,23.81
2016-11-17T05:43:23.989Z,23.87
2016-11-17T05:44:23.928Z,23.83
2016-11-17T05:45:23.872Z,23.78
2016-11-17T05:46:23.811Z,23.78
2016-11-17T05:47:23.751Z,23.84
2016-11-17T05:48:23.689Z,23.78
2016-11-17T05:49:23.628Z,23.84
2016-11-17T05:50:23.883Z,23.83
2016-11-17T05:51:23.503Z,23.86
2016-11-17T05:52:23.447Z,23.92
2016-11-17T05:53:23.388Z,23.83
2016-11-17T05:54:23.335Z,23.93
2016-11-17T05:55:23.262Z,23.87
2016-11-17T05:56:23.199Z,23.95
2016-11-17T05:57:23.142Z,23.86
2016-11-17T05:58:23.078Z,23.88
2016-11-17T05:59:23.020Z,23.91
2016-11-17T06:00:22.961Z,23.96
2016-11-17T06:01:22.900Z,24.05
2016-11-17T06:02:22.841Z,24.01
2016-11-17T06:03:22.784Z,24.03
2016-11-17T06:04:22.720Z,24.1
2016-11-17T06:05:22.654Z,23.99
2016-11-17T06:06:22.599Z,24.11
2016-11-17T06:07:22.535Z,24.11
2016-11-17T06:08:22.475Z,24.16
2016-11-17T06:09:22.415Z,24.14
2016-11-17T06:10:22.356Z,24.14
2016-11-17T06:11:22.322Z,24.13
2016-11-17T06:12:22.238Z,24.16
2016-11-17T06:13:22.204Z,24.14
2016-11-17T06:14:22.113Z,24.21
2016-11-17T06:15:22.053Z,24.23
2016-11-17T06:16:21.994Z,24.26
2016-11-17T06:17:21.934Z,24.21
2016-11-17T06:18:22.197Z,24.29
2016-11-17T06:19:21.813Z,24.3
2016-11-17T06:20:21.752Z,24.32
2016-11-17T06:21:21.693Z,24.23
2016-11-17T06:22:21.633Z,24.23
2016-11-17T06:23:21.568Z,24.36
2016-11-17T06:24:21.511Z,24.42
2016-11-17T06:25:21.450Z,24.45
2016-11-17T06:26:21.388Z,24.43
2016-11-17T06:27:21.331Z,24.43
2016-11-17T06:28:21.270Z,24.45
2016-11-17T06:29:21.207Z,24.45
2016-11-17T06:30:21.149Z,24.32
2016-11-17T06:31:21.089Z,24.43
2016-11-17T06:32:21.029Z,24.42
2016-11-17T06:33:20.968Z,24.43
2016-11-17T06:34:20.916Z,24.42
2016-11-17T06:35:20.847Z,24.3
2016-11-17T06:36:20.786Z,24.38
2016-11-17T06:37:20.730Z,24.45
2016-11-17T06:38:20.669Z,24.3
2016-11-17T06:39:20.614Z,24.35
2016-11-17T06:40:20.553Z,24.4
2016-11-17T06:41:20.485Z,24.29
2016-11-17T06:42:20.426Z,24.23
2016-11-17T06:43:20.370Z,24.3
2016-11-17T06:44:20.307Z,24.3
2016-11-17T06:45:20.250Z,24.33
2016-11-17T06:46:20.187Z,24.23
2016-11-17T06:47:20.127Z,24.28
2016-11-17T06:48:20.127Z,24.26
2016-11-17T06:49:20.009Z,24.26
2016-11-17T06:50:19.950Z,24.3
2016-11-17T06:51:19.885Z,24.28
2016-11-17T06:52:19.827Z,24.26
2016-11-17T06:53:19.766Z,24.23
2016-11-17T06:54:19.707Z,24.21
2016-11-17T06:55:19.647Z,24.2
2016-11-17T06:56:19.584Z,24.23
2016-11-17T06:57:19.525Z,24.23
2016-11-17T06:58:19.466Z,24.2
2016-11-17T06:59:19.402Z,24.16
2016-11-17T07:00:19.375Z,24.13
2016-11-17T07:01:19.281Z,24.2
2016-11-17T07:02:19.221Z,24.17
2016-11-17T07:03:19.162Z,24.16
2016-11-17T07:04:19.100Z,24.16
2016-11-17T07:05:19.041Z,24.1
2016-11-17T07:06:18.980Z,24.11
2016-11-17T07:07:19.240Z,24.13
2016-11-17T07:08:18.892Z,24.14
2016-11-17T07:09:18.797Z,24.13
2016-11-17T07:10:18.738Z,24.11
2016-11-17T07:11:18.677Z,24.14
2016-11-17T07:12:18.618Z,24.05
2016-11-17T07:13:18.559Z,24.01
2016-11-17T07:14:18.506Z,23.98
2016-11-17T07:15:18.441Z,24.03
2016-11-17T07:16:18.381Z,23.99
2016-11-17T07:17:18.318Z,24.01
2016-11-17T07:18:18.284Z,24.06
2016-11-17T07:19:18.206Z,24.08
2016-11-17T07:20:18.133Z,24.11
2016-11-17T07:21:18.077Z,24.05
2016-11-17T07:22:18.014Z,24.08
2016-11-17T07:23:17.957Z,24.03
2016-11-17T07:24:17.894Z,24.01
2016-11-17T07:25:17.834Z,24.02
2016-11-17T07:26:17.771Z,24.06
2016-11-17T07:27:17.711Z,23.98
2016-11-17T07:28:17.656Z,23.95
2016-11-17T07:29:17.588Z,23.99
2016-11-17T07:30:17.558Z,23.92
2016-11-17T07:31:17.469Z,23.87
2016-11-17T07:32:17.408Z,23.96
2016-11-17T07:33:17.347Z,23.92
2016-11-17T07:34:17.297Z,23.87
2016-11-17T07:35:17.229Z,23.88
2016-11-17T07:36:17.169Z,23.88
2016-11-17T07:37:17.104Z,23.92
2016-11-17T07:38:17.048Z,23.84
2016-11-17T07:39:16.984Z,23.91
2016-11-17T07:40:16.925Z,23.84
2016-11-17T07:41:16.863Z,23.95
2016-11-17T07:42:16.810Z,23.83
2016-11-17T07:43:16.747Z,23.99
2016-11-17T07:44:16.680Z,23.93
2016-11-17T07:45:16.623Z,23.95
2016-11-17T07:46:16.560Z,23.96
2016-11-17T07:47:16.502Z,23.81
2016-11-17T07:48:16.443Z,23.84
2016-11-17T07:49:16.384Z,23.84
2016-11-17T07:50:16.324Z,23.84
2016-11-17T07:51:16.262Z,23.87
2016-11-17T07:52:16.200Z,23.88
2016-11-17T07:53:16.145Z,23.92
2016-11-17T07:54:16.079Z,23.83
2016-11-17T07:55:16.021Z,23.87
2016-11-17T07:56:15.963Z,23.83
2016-11-17T07:57:15.895Z,23.83
2016-11-17T07:58:15.837Z,23.8
2016-11-17T07:59:15.781Z,23.83
2016-11-17T08:00:15.821Z,23.86
2016-11-17T08:01:15.658Z,23.88
2016-11-17T08:02:15.594Z,23.81
2016-11-17T08:03:15.533Z,23.8
2016-11-17T08:04:15.476Z,23.81
2016-11-17T08:05:15.414Z,23.81
2016-11-17T08:06:15.350Z,23.8
2016-11-17T08:07:15.292Z,23.84
2016-11-17T08:08:15.235Z,23.83
2016-11-17T08:09:15.171Z,23.84
2016-11-17T08:10:15.113Z,23.8
2016-11-17T08:11:15.052Z,23.88
2016-11-17T08:12:14.994Z,23.91
2016-11-17T08:13:14.932Z,23.88
2016-11-17T08:14:14.899Z,23.87
2016-11-17T08:15:14.808Z,23.83
2016-11-17T08:16:15.361Z,23.99
2016-11-17T08:17:14.687Z,23.88
2016-11-17T08:18:14.950Z,23.83
2016-11-17T08:19:14.567Z,23.92
2016-11-17T08:20:14.557Z,23.86
2016-11-17T08:21:14.445Z,23.86
2016-11-17T08:22:14.383Z,23.98
2016-11-17T08:23:14.328Z,24.06
2016-11-17T08:24:14.262Z,23.99
2016-11-17T08:25:14.204Z,24.02
2016-11-17T08:26:14.141Z,24.1
2016-11-17T08:27:14.083Z,23.99
2016-11-17T08:28:14.688Z,24.03
2016-11-17T08:29:13.960Z,24.08
2016-11-17T08:30:13.901Z,24.01
2016-11-17T08:31:13.850Z,24.13
2016-11-17T08:32:13.778Z,24.06
2016-11-17T08:33:13.722Z,24.05
2016-11-17T08:34:13.663Z,23.84
2016-11-17T08:35:14.358Z,23.8
2016-11-17T08:36:13.540Z,23.66
2016-11-17T08:37:13.475Z,23.73
2016-11-17T08:38:13.420Z,23.69
2016-11-17T08:39:13.358Z,23.73
2016-11-17T08:40:13.295Z,23.81
2016-11-17T08:41:13.236Z,23.81
2016-11-17T08:42:13.178Z,23.92
2016-11-17T08:43:13.110Z,23.86
2016-11-17T08:44:13.051Z,23.96
2016-11-17T08:45:13.388Z,23.91
2016-11-17T08:46:12.989Z,23.95
2016-11-17T08:47:12.868Z,23.96
2016-11-17T08:48:12.810Z,23.91
2016-11-17T08:49:12.750Z,23.92
2016-11-17T08:50:12.688Z,23.95
2016-11-17T08:51:12.648Z,23.98
2016-11-17T08:52:12.595Z,23.93
2016-11-17T08:53:12.504Z,24.01
2016-11-17T08:54:12.447Z,23.91
2016-11-17T08:55:12.784Z,23.93
2016-11-17T08:56:12.322Z,23.96
2016-11-17T08:57:12.263Z,23.96
2016-11-17T08:58:12.204Z,23.92
2016-11-17T08:59:12.151Z,23.87
2016-11-17T09:00:12.448Z,23.98
2016-11-17T09:01:12.031Z,23.88
2016-11-17T09:02:12.159Z,23.91
2016-11-17T09:03:11.913Z,23.96
2016-11-17T09:04:11.871Z,23.86
2016-11-17T09:05:11.774Z,23.92
2016-11-17T09:06:12.040Z,23.93
2016-11-17T09:07:11.686Z,23.91
2016-11-17T09:08:11.598Z,23.91
2016-11-17T09:09:11.533Z,23.81
2016-11-17T09:10:11.473Z,23.81
2016-11-17T09:11:11.412Z,23.84
2016-11-17T09:12:11.351Z,23.78
2016-11-17T09:13:11.289Z,23.8
2016-11-17T09:14:11.228Z,23.8
2016-11-17T09:15:11.404Z,23.8
2016-11-17T09:16:11.108Z,23.8
2016-11-17T09:17:11.047Z,23.76
2016-11-17T09:18:10.991Z,23.8
2016-11-17T09:19:10.931Z,23.74
2016-11-17T09:20:10.868Z,23.77
2016-11-17T09:21:11.120Z,23.78
2016-11-17T09:22:10.746Z,23.76
2016-11-17T09:23:10.686Z,23.78
2016-11-17T09:24:10.625Z,23.77
2016-11-17T09:25:10.563Z,23.76
2016-11-17T09:26:10.508Z,23.8
2016-11-17T09:27:10.444Z,23.8
2016-11-17T09:28:10.381Z,23.78
2016-11-17T09:29:10.332Z,23.8
2016-11-17T09:30:10.266Z,23.74
2016-11-17T09:31:10.204Z,23.77
2016-11-17T09:32:10.139Z,23.78
2016-11-17T09:33:10.082Z,23.78
2016-11-17T09:34:10.018Z,23.73
2016-11-17T09:35:10.417Z,23.74
2016-11-17T09:36:09.929Z,23.8
2016-11-17T09:37:09.840Z,23.77
2016-11-17T09:38:09.771Z,23.78
2016-11-17T09:39:09.716Z,23.73
2016-11-17T09:40:09.830Z,23.71
2016-11-17T09:41:09.594Z,23.74
2016-11-17T09:42:09.532Z,23.78
2016-11-17T09:43:09.469Z,23.73
2016-11-17T09:44:09.408Z,23.78
2016-11-17T09:45:09.348Z,23.76
2016-11-17T09:46:09.287Z,23.78
2016-11-17T09:47:09.231Z,23.8
2016-11-17T09:48:09.166Z,23.77
2016-11-17T09:49:09.108Z,23.73
2016-11-17T09:50:09.048Z,23.76
2016-11-17T09:51:09.015Z,23.73
2016-11-17T09:52:08.925Z,23.74
2016-11-17T09:53:08.863Z,23.77
2016-11-17T09:54:08.803Z,23.77
2016-11-17T09:55:08.743Z,23.73
2016-11-17T09:56:08.688Z,23.76
2016-11-17T09:57:08.622Z,23.77
2016-11-17T09:58:08.566Z,23.81
2016-11-17T09:59:08.509Z,23.76
2016-11-17T10:00:08.441Z,23.78
2016-11-17T10:01:08.381Z,23.77
2016-11-17T10:02:08.349Z,23.77
2016-11-17T10:03:08.257Z,23.73
2016-11-17T10:04:08.197Z,23.77
2016-11-17T10:05:08.139Z,23.73
2016-11-17T10:06:08.078Z,23.76
2016-11-17T10:07:08.015Z,23.76
2016-11-17T10:08:07.961Z,23.78
2016-11-17T10:09:07.895Z,23.73
2016-11-17T10:10:07.834Z,23.76
2016-11-17T10:11:07.781Z,23.77
2016-11-17T10:12:07.717Z,23.73
2016-11-17T10:13:07.657Z,23.77
2016-11-17T10:14:07.591Z,23.77
2016-11-17T10:15:07.533Z,23.74
2016-11-17T10:16:07.477Z,23.77
2016-11-17T10:17:07.410Z,23.81
2016-11-17T10:18:07.352Z,23.77
2016-11-17T10:19:07.288Z,23.78
2016-11-17T10:20:07.230Z,23.81
2016-11-17T10:21:07.169Z,23.77
2016-11-17T10:22:07.110Z,23.76
2016-11-17T10:23:07.046Z,23.78
2016-11-17T10:24:06.987Z,23.77
2016-11-17T10:25:06.931Z,23.74
2016-11-17T10:26:06.866Z,23.78
2016-11-17T10:27:06.807Z,23.73
2016-11-17T10:28:06.742Z,23.81
2016-11-17T10:29:06.684Z,23.78
2016-11-17T10:30:06.667Z,23.77
2016-11-17T10:31:06.569Z,23.77
2016-11-17T10:32:06.513Z,23.78
2016-11-17T10:33:06.657Z,23.77
2016-11-17T10:34:06.694Z,23.76
2016-11-17T10:35:06.323Z,23.77
2016-11-17T10:36:06.259Z,23.76
2016-11-17T10:37:06.200Z,23.77
2016-11-17T10:38:06.132Z,23.77
2016-11-17T10:39:06.079Z,23.78
2016-11-17T10:40:06.019Z,23.77
2016-11-17T10:41:05.963Z,23.76
2016-11-17T10:42:05.899Z,23.78
2016-11-17T10:43:05.838Z,23.71
2016-11-17T10:44:05.784Z,23.68
2016-11-17T10:45:05.711Z,23.61
2016-11-17T10:46:05.659Z,23.54
2016-11-17T10:47:05.628Z,23.4
2016-11-17T10:48:05.847Z,23.24
2016-11-17T10:49:05.469Z,23.25
2016-11-17T10:50:05.414Z,23.23
2016-11-17T10:51:05.386Z,23.21
2016-11-17T10:52:05.294Z,23.21
2016-11-17T10:53:05.230Z,23.24
2016-11-17T10:54:05.174Z,23.21
2016-11-17T10:55:05.101Z,23.23
2016-11-17T10:56:05.052Z,23.24
2016-11-17T10:57:05.305Z,23.21
2016-11-17T10:58:04.920Z,23.2
2016-11-17T10:59:04.864Z,23.18
2016-11-17T11:00:04.802Z,23.25
2016-11-17T11:01:04.742Z,23.21
2016-11-17T11:02:04.677Z,23.23
2016-11-17T11:03:04.619Z,23.36
2016-11-17T11:04:04.557Z,23.31
2016-11-17T11:05:04.497Z,23.37
2016-11-17T11:06:04.433Z,23.41
2016-11-17T11:07:04.371Z,23.44
2016-11-17T11:08:04.312Z,23.55
2016-11-17T11:09:04.260Z,23.55
2016-11-17T11:10:04.542Z,23.55
2016-11-17T11:11:04.131Z,23.56
2016-11-17T11:12:04.068Z,23.5
2016-11-17T11:13:04.005Z,23.56
2016-11-17T11:14:03.950Z,23.59
2016-11-17T11:15:03.881Z,23.62
2016-11-17T11:16:03.822Z,23.61
2016-11-17T11:17:03.762Z,23.62
2016-11-17T11:18:03.711Z,23.68
2016-11-17T11:19:03.637Z,23.66
2016-11-17T11:20:03.902Z,23.66
2016-11-17T11:21:03.521Z,23.69
2016-11-17T11:22:03.456Z,23.77
2016-11-17T11:23:03.397Z,23.74
2016-11-17T11:24:03.362Z,23.69
2016-11-17T11:25:03.294Z,23.71
2016-11-17T11:26:03.238Z,23.76
2016-11-17T11:27:03.169Z,23.78
2016-11-17T11:28:03.109Z,23.83
2016-11-17T11:29:03.039Z,23.78
2016-11-17T11:30:02.996Z,23.81
2016-11-17T11:31:02.919Z,23.83
2016-11-17T11:32:02.849Z,23.83
2016-11-17T11:33:02.792Z,23.87
2016-11-17T11:34:02.731Z,23.86
2016-11-17T11:35:02.681Z,23.83
2016-11-17T11:36:02.613Z,23.93
2016-11-17T11:37:02.552Z,23.96
2016-11-17T11:38:02.493Z,23.88
2016-11-17T11:39:02.434Z,23.92
2016-11-17T11:40:02.366Z,23.87
2016-11-17T11:41:02.305Z,23.87
2016-11-17T11:42:02.245Z,23.88
2016-11-17T11:43:02.215Z,23.81
2016-11-17T11:44:02.123Z,23.92
2016-11-17T11:45:02.109Z,23.98
2016-11-17T11:46:02.053Z,23.98
2016-11-17T11:47:01.948Z,23.88
2016-11-17T11:48:01.884Z,23.91
2016-11-17T11:49:01.822Z,23.87
2016-11-17T11:50:01.763Z,23.86
2016-11-17T11:51:01.705Z,23.93
2016-11-17T11:52:01.641Z,23.87
2016-11-17T11:53:01.580Z,23.86
2016-11-17T11:54:01.523Z,23.91
2016-11-17T11:55:01.459Z,23.88
2016-11-17T11:56:01.399Z,23.92
2016-11-17T11:57:01.344Z,23.86
2016-11-17T11:58:01.281Z,23.96
2016-11-17T11:59:01.219Z,23.95
2016-11-17T12:00:01.156Z,23.95
2016-11-17T12:01:01.100Z,23.96
2016-11-17T12:02:01.034Z,23.99
2016-11-17T12:03:00.975Z,24.01
2016-11-17T12:04:00.913Z,23.96
2016-11-17T12:05:00.863Z,23.91
2016-11-17T12:06:00.792Z,23.88
2016-11-17T12:07:00.745Z,23.92
2016-11-17T12:08:00.674Z,23.93
2016-11-17T12:09:00.616Z,23.95
2016-11-17T12:10:00.554Z,23.87
2016-11-17T12:11:00.494Z,23.88
2016-11-17T12:12:00.432Z,23.86
2016-11-17T12:13:00.375Z,23.86
2016-11-17T12:14:00.872Z,23.87
2016-11-17T12:15:00.250Z,23.87
2016-11-17T12:16:00.187Z,23.92
2016-11-17T12:17:00.129Z,23.95
2016-11-17T12:18:00.068Z,23.78
2016-11-17T12:19:00.013Z,23.66
2016-11-17T12:19:59.953Z,23.76
2016-11-17T12:20:59.891Z,23.8
2016-11-17T12:21:59.825Z,23.71
2016-11-17T12:22:59.767Z,23.69
2016-11-17T12:23:59.708Z,23.73
2016-11-17T12:24:59.656Z,23.73
2016-11-17T12:25:59.587Z,23.73
2016-11-17T12:26:59.560Z,23.69
2016-11-17T12:27:59.461Z,23.66
2016-11-17T12:28:59.422Z,23.69
2016-11-17T12:29:59.345Z,23.62
2016-11-17T12:30:59.281Z,23.63
2016-11-17T12:31:59.227Z,23.62
2016-11-17T12:32:59.159Z,23.62
2016-11-17T12:33:59.099Z,23.55
2016-11-17T12:34:59.037Z,23.62
2016-11-17T12:35:58.975Z,23.63
2016-11-17T12:36:59.237Z,23.59
2016-11-17T12:37:58.891Z,23.55
2016-11-17T12:38:58.816Z,23.61
2016-11-17T12:39:58.741Z,23.54
2016-11-17T12:40:58.687Z,23.51
2016-11-17T12:41:58.614Z,23.5
2016-11-17T12:42:58.587Z,23.5
2016-11-17T12:43:58.510Z,23.54
2016-11-17T12:44:58.434Z,23.47
2016-11-17T12:45:58.373Z,23.48
2016-11-17T12:46:58.312Z,23.58
2016-11-17T12:47:58.262Z,23.51
2016-11-17T12:48:58.399Z,23.47
2016-11-17T12:49:58.128Z,23.47
2016-11-17T12:50:58.071Z,23.48
2016-11-17T12:51:58.008Z,23.4
2016-11-17T12:52:57.944Z,23.48
2016-11-17T12:53:57.883Z,23.41